createdAt,value
2017-02-01T00:00:32.267Z,1011.39
2017-02-01T00:01:37.442Z,1011.39
2017-02-01T00:02:43.614Z,1011.4
2017-02-01T00:03:48.823Z,1011.4
2017-02-01T00:04:54.990Z,1011.43
2017-02-01T00:06:00.195Z,1011.45
2017-02-01T00:07:05.467Z,1011.42
2017-02-01T00:08:11.668Z,1011.43
2017-02-01T00:09:16.832Z,1011.38
2017-02-01T00:10:22.034Z,1011.38
2017-02-01T00:11:28.297Z,1011.36
2017-02-01T00:12:34.457Z,1011.31
2017-02-01T00:13:40.623Z,1011.33
2017-02-01T00:14:45.844Z,1011.24
2017-02-01T00:15:51.041Z,1011.28
2017-02-01T00:16:57.214Z,1011.28
2017-02-01T00:18:03.409Z,1011.29
2017-02-01T00:19:07.612Z,1011.27
2017-02-01T00:20:12.808Z,1011.29
2017-02-01T00:21:18.027Z,1011.32
2017-02-01T00:22:23.254Z,1011.31
2017-02-01T00:23:28.438Z,1011.25
2017-02-01T00:24:33.647Z,1011.27
2017-02-01T00:25:38.844Z,1011.23
2017-02-01T00:26:44.036Z,1011.27
2017-02-01T00:27:48.236Z,1011.28
2017-02-01T00:28:54.454Z,1011.32
2017-02-01T00:30:00.571Z,1011.29
2017-02-01T00:31:05.778Z,1011.29
2017-02-01T00:32:09.972Z,1011.35
2017-02-01T00:33:15.169Z,1011.34
2017-02-01T00:34:20.364Z,1011.29
2017-02-01T00:35:26.534Z,1011.28
2017-02-01T00:36:31.764Z,1011.29
2017-02-01T00:37:35.947Z,1011.32
2017-02-01T00:38:41.112Z,1011.28
2017-02-01T00:39:46.315Z,1011.29
2017-02-01T00:40:51.519Z,1011.31
2017-02-01T00:41:56.720Z,1011.28
2017-02-01T00:43:01.973Z,1011.25
2017-02-01T00:44:08.080Z,1011.25
2017-02-01T00:45:14.299Z,1011.23
2017-02-01T00:46:20.478Z,1011.33
2017-02-01T00:47:26.648Z,1011.23
2017-02-01T00:48:32.808Z,1011.24
2017-02-01T00:49:39.008Z,1011.24
2017-02-01T00:50:45.149Z,1011.23
2017-02-01T00:51:49.364Z,1011.26
2017-02-01T00:52:55.523Z,1011.17
2017-02-01T00:53:59.739Z,1011.17
2017-02-01T00:55:06.007Z,1011.18
2017-02-01T00:56:10.278Z,1011.14
2017-02-01T00:57:15.408Z,1011.15
2017-02-01T00:58:20.623Z,1011.2
2017-02-01T00:59:25.775Z,1011.21
2017-02-01T01:00:30.004Z,1011.15
2017-02-01T01:01:33.261Z,1011.15
2017-02-01T01:02:39.423Z,1011.15
2017-02-01T01:03:44.620Z,1011.18
2017-02-01T01:04:50.791Z,1011.14
2017-02-01T01:05:56.960Z,1011.21
2017-02-01T01:07:01.187Z,1011.23
2017-02-01T01:08:06.384Z,1011.14
2017-02-01T01:09:11.590Z,1011.15
2017-02-01T01:10:17.749Z,1011.17
2017-02-01T01:11:22.995Z,1011.19
2017-02-01T01:12:28.203Z,1011.2
2017-02-01T01:13:33.398Z,1011.2
2017-02-01T01:14:37.678Z,1011.22
2017-02-01T01:15:43.796Z,1011.19
2017-02-01T01:16:48.963Z,1011.21
2017-02-01T01:17:54.221Z,1011.21
2017-02-01T01:19:00.389Z,1011.21
2017-02-01T01:20:02.705Z,1011.19
2017-02-01T01:21:08.867Z,1011.22
2017-02-01T01:22:15.030Z,1011.16
2017-02-01T01:23:21.187Z,1011.18
2017-02-01T01:24:27.349Z,1011.16
2017-02-01T01:25:33.528Z,1011.12
2017-02-01T01:26:38.724Z,1011.15
2017-02-01T01:27:43.939Z,1011.17
2017-02-01T01:28:50.098Z,1011.15
2017-02-01T01:29:56.302Z,1011.17
2017-02-01T01:31:01.591Z,1011.15
2017-02-01T01:32:06.764Z,1011.17
2017-02-01T01:33:12.946Z,1011.2
2017-02-01T01:34:19.106Z,1011.2
2017-02-01T01:35:25.270Z,1011.18
2017-02-01T01:36:30.469Z,1011.22
2017-02-01T01:37:34.682Z,1011.18
2017-02-01T01:38:39.881Z,1011.24
2017-02-01T01:39:46.066Z,1011.27
2017-02-01T01:40:51.245Z,1011.28
2017-02-01T01:41:57.406Z,1011.27
2017-02-01T01:43:02.602Z,1011.29
2017-02-01T01:44:07.794Z,1011.3
2017-02-01T01:45:13.000Z,1011.33
2017-02-01T01:46:17.219Z,1011.3
2017-02-01T01:47:22.393Z,1011.28
2017-02-01T01:48:28.570Z,1011.29
2017-02-01T01:49:33.785Z,1011.24
2017-02-01T01:50:38.983Z,1011.25
2017-02-01T01:51:45.136Z,1011.26
2017-02-01T01:52:51.341Z,1011.28
2017-02-01T01:53:57.483Z,1011.25
2017-02-01T01:55:03.654Z,1011.27
2017-02-01T01:56:08.876Z,1011.26
2017-02-01T01:57:14.123Z,1011.3
2017-02-01T01:58:18.385Z,1011.3
2017-02-01T01:59:23.630Z,1011.3
2017-02-01T02:00:27.964Z,1011.26
2017-02-01T02:01:34.107Z,1011.25
2017-02-01T02:02:39.305Z,1011.28
2017-02-01T02:03:43.592Z,1011.28
2017-02-01T02:04:48.817Z,1011.23
2017-02-01T02:05:54.960Z,1011.26
2017-02-01T02:07:01.124Z,1011.21
2017-02-01T02:08:04.359Z,1011.24
2017-02-01T02:09:10.528Z,1011.21
2017-02-01T02:10:14.782Z,1011.22
2017-02-01T02:11:19.978Z,1011.18
2017-02-01T02:12:25.178Z,1011.16
2017-02-01T02:13:29.406Z,1011.16
2017-02-01T02:14:34.649Z,1011.15
2017-02-01T02:15:39.788Z,1011.17
2017-02-01T02:16:45.968Z,1011.17
2017-02-01T02:17:51.261Z,1011.16
2017-02-01T02:18:57.445Z,1011.11
2017-02-01T02:20:03.605Z,1011.11
2017-02-01T02:21:06.858Z,1011.13
2017-02-01T02:22:12.057Z,1011.14
2017-02-01T02:23:18.227Z,1011.13
2017-02-01T02:24:24.389Z,1011.09
2017-02-01T02:25:29.567Z,1011.07
2017-02-01T02:26:35.792Z,1011.1
2017-02-01T02:27:41.908Z,1011.06
2017-02-01T02:28:47.067Z,1011.08
2017-02-01T02:29:52.264Z,1011.09
2017-02-01T02:30:56.492Z,1011.07
2017-02-01T02:32:00.730Z,1011.07
2017-02-01T02:33:06.891Z,1011.07
2017-02-01T02:34:10.131Z,1011.05
2017-02-01T02:35:16.299Z,1011.06
2017-02-01T02:36:21.498Z,1011.05
2017-02-01T02:37:26.695Z,1011.05
2017-02-01T02:38:32.860Z,1011.06
2017-02-01T02:39:37.097Z,1011.06
2017-02-01T02:40:43.254Z,1011.06
2017-02-01T02:41:47.494Z,1011.11
2017-02-01T02:42:52.761Z,1011.09
2017-02-01T02:43:59.026Z,1011.04
2017-02-01T02:45:04.302Z,1011.05
2017-02-01T02:46:09.514Z,1011.05
2017-02-01T02:47:13.681Z,1011.01
2017-02-01T02:48:19.836Z,1011
2017-02-01T02:49:25.163Z,1010.99
2017-02-01T02:50:31.334Z,1010.96
2017-02-01T02:51:36.548Z,1010.95
2017-02-01T02:52:41.741Z,1010.95
2017-02-01T02:53:47.916Z,1010.97
2017-02-01T02:54:53.108Z,1010.96
2017-02-01T02:55:59.251Z,1010.96
2017-02-01T02:57:03.537Z,1010.95
2017-02-01T02:58:08.703Z,1010.93
2017-02-01T02:59:13.944Z,1010.95
2017-02-01T03:00:19.072Z,1010.95
2017-02-01T03:01:24.308Z,1010.97
2017-02-01T03:02:30.485Z,1010.93
2017-02-01T03:03:35.657Z,1010.93
2017-02-01T03:04:41.823Z,1010.92
2017-02-01T03:05:48.033Z,1010.89
2017-02-01T03:06:53.227Z,1010.91
2017-02-01T03:07:59.402Z,1010.92
2017-02-01T03:09:05.556Z,1010.91
2017-02-01T03:10:11.772Z,1010.94
2017-02-01T03:11:16.975Z,1010.9
2017-02-01T03:12:23.143Z,1010.91
2017-02-01T03:13:28.333Z,1010.91
2017-02-01T03:14:31.588Z,1010.89
2017-02-01T03:15:37.768Z,1010.86
2017-02-01T03:16:43.048Z,1010.83
2017-02-01T03:17:49.256Z,1010.9
2017-02-01T03:18:54.451Z,1010.87
2017-02-01T03:19:59.614Z,1010.87
2017-02-01T03:21:04.810Z,1010.77
2017-02-01T03:22:10.070Z,1010.79
2017-02-01T03:23:16.231Z,1010.76
2017-02-01T03:24:21.474Z,1010.76
2017-02-01T03:25:26.675Z,1010.76
2017-02-01T03:26:31.874Z,1010.76
2017-02-01T03:27:38.028Z,1010.74
2017-02-01T03:28:44.259Z,1010.72
2017-02-01T03:29:50.425Z,1010.7
2017-02-01T03:30:56.614Z,1010.7
2017-02-01T03:32:02.778Z,1010.66
2017-02-01T03:33:07.945Z,1010.65
2017-02-01T03:34:10.247Z,1010.64
2017-02-01T03:35:15.445Z,1010.63
2017-02-01T03:36:21.620Z,1010.58
2017-02-01T03:37:27.787Z,1010.54
2017-02-01T03:38:33.995Z,1010.51
2017-02-01T03:39:38.184Z,1010.5
2017-02-01T03:40:44.373Z,1010.49
2017-02-01T03:41:48.612Z,1010.47
2017-02-01T03:42:54.810Z,1010.48
2017-02-01T03:43:59.967Z,1010.5
2017-02-01T03:45:05.172Z,1010.49
2017-02-01T03:46:11.354Z,1010.5
2017-02-01T03:47:16.528Z,1010.45
2017-02-01T03:48:21.723Z,1010.45
2017-02-01T03:49:27.891Z,1010.47
2017-02-01T03:50:34.104Z,1010.46
2017-02-01T03:51:40.319Z,1010.49
2017-02-01T03:52:45.477Z,1010.42
2017-02-01T03:53:51.635Z,1010.36
2017-02-01T03:54:55.839Z,1010.42
2017-02-01T03:56:00.065Z,1010.45
2017-02-01T03:57:05.253Z,1010.43
2017-02-01T03:58:11.424Z,1010.41
2017-02-01T03:59:17.586Z,1010.4
2017-02-01T04:00:23.749Z,1010.38
2017-02-01T04:01:28.972Z,1010.38
2017-02-01T04:02:35.157Z,1010.34
2017-02-01T04:03:40.327Z,1010.37
2017-02-01T04:04:46.490Z,1010.34
2017-02-01T04:05:52.701Z,1010.39
2017-02-01T04:06:58.879Z,1010.37
2017-02-01T04:08:05.047Z,1010.39
2017-02-01T04:09:10.277Z,1010.38
2017-02-01T04:10:16.448Z,1010.35
2017-02-01T04:11:21.638Z,1010.36
2017-02-01T04:12:27.804Z,1010.36
2017-02-01T04:13:34.084Z,1010.37
2017-02-01T04:14:37.345Z,1010.33
2017-02-01T04:15:43.524Z,1010.31
2017-02-01T04:16:48.716Z,1010.36
2017-02-01T04:17:54.880Z,1010.34
2017-02-01T04:19:01.050Z,1010.36
2017-02-01T04:20:06.255Z,1010.35
2017-02-01T04:21:12.423Z,1010.34
2017-02-01T04:22:17.589Z,1010.36
2017-02-01T04:23:23.763Z,1010.34
2017-02-01T04:24:29.920Z,1010.27
2017-02-01T04:25:36.132Z,1010.27
2017-02-01T04:26:41.332Z,1010.29
2017-02-01T04:27:47.522Z,1010.28
2017-02-01T04:28:52.713Z,1010.35
2017-02-01T04:29:57.996Z,1010.36
2017-02-01T04:31:02.218Z,1010.32
2017-02-01T04:32:07.399Z,1010.35
2017-02-01T04:33:11.598Z,1010.34
2017-02-01T04:34:16.786Z,1010.31
2017-02-01T04:35:22.948Z,1010.35
2017-02-01T04:36:28.246Z,1010.3
2017-02-01T04:37:33.414Z,1010.32
2017-02-01T04:38:39.574Z,1010.31
2017-02-01T04:39:44.825Z,1010.33
2017-02-01T04:40:48.055Z,1010.29
2017-02-01T04:41:53.231Z,1010.33
2017-02-01T04:42:57.467Z,1010.29
2017-02-01T04:44:02.669Z,1010.24
2017-02-01T04:45:08.836Z,1010.32
2017-02-01T04:46:14.996Z,1010.29
2017-02-01T04:47:20.159Z,1010.31
2017-02-01T04:48:25.351Z,1010.35
2017-02-01T04:49:30.555Z,1010.27
2017-02-01T04:50:35.717Z,1010.24
2017-02-01T04:51:40.919Z,1010.23
2017-02-01T04:52:46.112Z,1010.23
2017-02-01T04:53:52.274Z,1010.3
2017-02-01T04:54:57.464Z,1010.25
2017-02-01T04:56:02.698Z,1010.23
2017-02-01T04:57:07.889Z,1010.3
2017-02-01T04:58:13.092Z,1010.27
2017-02-01T04:59:18.315Z,1010.24
2017-02-01T05:00:24.452Z,1010.27
2017-02-01T05:01:30.647Z,1010.22
2017-02-01T05:02:34.818Z,1010.26
2017-02-01T05:03:40.052Z,1010.28
2017-02-01T05:04:45.249Z,1010.32
2017-02-01T05:05:49.548Z,1010.3
2017-02-01T05:06:55.711Z,1010.37
2017-02-01T05:07:59.962Z,1010.32
2017-02-01T05:09:02.238Z,1010.3
2017-02-01T05:10:05.471Z,1010.37
2017-02-01T05:11:11.636Z,1010.31
2017-02-01T05:12:15.868Z,1010.3
2017-02-01T05:13:22.066Z,1010.29
2017-02-01T05:14:28.243Z,1010.3
2017-02-01T05:15:34.395Z,1010.35
2017-02-01T05:17:45.746Z,1010.33
2017-02-01T05:18:51.922Z,1010.36
2017-02-01T05:19:57.119Z,1010.35
2017-02-01T05:21:03.291Z,1010.36
2017-02-01T05:22:07.501Z,1010.36
2017-02-01T05:23:13.670Z,1010.34
2017-02-01T05:24:18.864Z,1010.36
2017-02-01T05:25:23.162Z,1010.33
2017-02-01T05:26:28.349Z,1010.4
2017-02-01T05:27:33.546Z,1010.41
2017-02-01T05:28:39.709Z,1010.41
2017-02-01T05:29:44.905Z,1010.37
2017-02-01T05:30:51.059Z,1010.4
2017-02-01T05:31:55.308Z,1010.45
2017-02-01T05:33:01.483Z,1010.47
2017-02-01T05:34:07.722Z,1010.45
2017-02-01T05:35:13.880Z,1010.45
2017-02-01T05:36:19.075Z,1010.45
2017-02-01T05:37:22.315Z,1010.44
2017-02-01T05:38:27.484Z,1010.44
2017-02-01T05:39:32.676Z,1010.42
2017-02-01T05:40:37.871Z,1010.38
2017-02-01T05:41:43.065Z,1010.43
2017-02-01T05:42:49.233Z,1010.37
2017-02-01T05:43:55.454Z,1010.34
2017-02-01T05:45:01.626Z,1010.37
2017-02-01T05:46:06.840Z,1010.4
2017-02-01T05:47:12.991Z,1010.5
2017-02-01T05:48:19.156Z,1010.38
2017-02-01T05:49:24.398Z,1010.41
2017-02-01T05:50:30.527Z,1010.34
2017-02-01T05:51:35.740Z,1010.38
2017-02-01T05:52:40.919Z,1010.35
2017-02-01T05:53:47.118Z,1010.4
2017-02-01T05:54:53.245Z,1010.39
2017-02-01T05:55:59.410Z,1010.36
2017-02-01T05:57:04.589Z,1010.37
2017-02-01T05:58:09.799Z,1010.35
2017-02-01T05:59:15.977Z,1010.34
2017-02-01T06:00:22.154Z,1010.34
2017-02-01T06:01:28.348Z,1010.31
2017-02-01T06:02:34.472Z,1010.33
2017-02-01T06:03:38.724Z,1010.31
2017-02-01T06:04:43.922Z,1010.33
2017-02-01T06:05:49.113Z,1010.25
2017-02-01T06:06:53.322Z,1010.3
2017-02-01T06:07:57.523Z,1010.27
2017-02-01T06:09:02.727Z,1010.24
2017-02-01T06:10:07.969Z,1010.34
2017-02-01T06:11:13.169Z,1010.26
2017-02-01T06:12:19.334Z,1010.27
2017-02-01T06:13:24.535Z,1010.28
2017-02-01T06:14:30.724Z,1010.28
2017-02-01T06:15:35.924Z,1010.21
2017-02-01T06:16:41.138Z,1010.26
2017-02-01T06:17:47.309Z,1010.24
2017-02-01T06:18:51.506Z,1010.27
2017-02-01T06:19:57.666Z,1010.31
2017-02-01T06:21:02.936Z,1010.29
2017-02-01T06:22:08.131Z,1010.3
2017-02-01T06:23:14.296Z,1010.28
2017-02-01T06:24:20.519Z,1010.31
2017-02-01T06:25:24.740Z,1010.29
2017-02-01T06:26:30.919Z,1010.3
2017-02-01T06:27:37.091Z,1010.28
2017-02-01T06:28:43.253Z,1010.26
2017-02-01T06:29:48.452Z,1010.3
2017-02-01T06:30:53.670Z,1010.22
2017-02-01T06:31:59.838Z,1010.21
2017-02-01T06:33:06.006Z,1010.22
2017-02-01T06:34:10.229Z,1010.19
2017-02-01T06:35:13.581Z,1010.2
2017-02-01T06:36:19.836Z,1010.24
2017-02-01T06:37:25.175Z,1010.2
2017-02-01T06:38:30.368Z,1010.22
2017-02-01T06:39:34.602Z,1010.19
2017-02-01T06:40:39.805Z,1010.18
2017-02-01T06:41:45.971Z,1010.19
2017-02-01T06:42:52.133Z,1010.26
2017-02-01T06:43:57.378Z,1010.22
2017-02-01T06:45:01.572Z,1010.26
2017-02-01T06:46:06.761Z,1010.25
2017-02-01T06:47:12.931Z,1010.19
2017-02-01T06:48:18.142Z,1010.22
2017-02-01T06:49:23.315Z,1010.2
2017-02-01T06:50:29.539Z,1010.16
2017-02-01T06:51:35.714Z,1010.21
2017-02-01T06:52:40.899Z,1010.21
2017-02-01T06:53:46.106Z,1010.18
2017-02-01T06:54:50.408Z,1010.25
2017-02-01T06:55:56.728Z,1010.23
2017-02-01T06:57:01.929Z,1010.22
2017-02-01T06:58:06.157Z,1010.22
2017-02-01T06:59:11.344Z,1010.28
2017-02-01T07:00:17.532Z,1010.22
2017-02-01T07:01:22.704Z,1010.21
2017-02-01T07:02:28.882Z,1010.21
2017-02-01T07:03:34.080Z,1010.19
2017-02-01T07:04:40.248Z,1010.2
2017-02-01T07:05:45.440Z,1010.13
2017-02-01T07:06:51.713Z,1010.15
2017-02-01T07:07:57.778Z,1010.19
2017-02-01T07:09:03.943Z,1010.16
2017-02-01T07:10:10.111Z,1010.18
2017-02-01T07:11:15.308Z,1010.16
2017-02-01T07:12:21.466Z,1010.16
2017-02-01T07:13:26.670Z,1010.09
2017-02-01T07:14:30.903Z,1010.14
2017-02-01T07:15:37.074Z,1010.06
2017-02-01T07:16:43.241Z,1010.09
2017-02-01T07:17:48.400Z,1010.06
2017-02-01T07:18:54.577Z,1010.11
2017-02-01T07:20:00.743Z,1010.08
2017-02-01T07:21:05.965Z,1010.13
2017-02-01T07:22:11.187Z,1010.08
2017-02-01T07:23:17.358Z,1010.05
2017-02-01T07:24:21.592Z,1010.06
2017-02-01T07:25:27.840Z,1010.04
2017-02-01T07:26:33.037Z,1010.09
2017-02-01T07:27:37.240Z,1010.13
2017-02-01T07:28:43.503Z,1010.09
2017-02-01T07:29:49.669Z,1010.04
2017-02-01T07:30:54.971Z,1010.04
2017-02-01T07:32:01.131Z,1010.09
2017-02-01T07:33:06.389Z,1010.05
2017-02-01T07:34:11.539Z,1010.04
2017-02-01T07:35:15.749Z,1010.05
2017-02-01T07:36:20.943Z,1010.09
2017-02-01T07:37:27.124Z,1010.07
2017-02-01T07:38:32.327Z,1010.05
2017-02-01T07:39:38.495Z,1010.07
2017-02-01T07:40:42.727Z,1010.03
2017-02-01T07:41:48.052Z,1010.1
2017-02-01T07:42:53.249Z,1010.06
2017-02-01T07:43:56.484Z,1010.01
2017-02-01T07:44:59.716Z,1010.01
2017-02-01T07:46:04.920Z,1010.03
2017-02-01T07:47:09.200Z,1010.01
2017-02-01T07:48:15.329Z,1010.07
2017-02-01T07:49:20.551Z,1010.02
2017-02-01T07:50:26.701Z,1010.07
2017-02-01T07:51:30.924Z,1010.03
2017-02-01T07:52:36.215Z,1010.03
2017-02-01T07:53:41.403Z,1010.02
2017-02-01T07:54:46.595Z,1010.08
2017-02-01T07:55:52.773Z,1010.03
2017-02-01T07:56:57.012Z,1010.04
2017-02-01T07:58:03.168Z,1010.04
2017-02-01T07:59:09.332Z,1010.05
2017-02-01T08:00:15.491Z,1010.08
2017-02-01T08:01:21.658Z,1010.05
2017-02-01T08:02:27.835Z,1010.06
2017-02-01T08:03:33.038Z,1010.02
2017-02-01T08:04:39.205Z,1010.02
2017-02-01T08:05:45.376Z,1010.05
2017-02-01T08:06:51.536Z,1010.1
2017-02-01T08:07:57.695Z,1010.06
2017-02-01T08:09:03.925Z,1010.09
2017-02-01T08:10:08.181Z,1010.1
2017-02-01T08:11:13.354Z,1010.07
2017-02-01T08:12:18.561Z,1010.13
2017-02-01T08:13:24.730Z,1010.14
2017-02-01T08:14:30.911Z,1010.11
2017-02-01T08:15:37.096Z,1010.14
2017-02-01T08:16:42.311Z,1010.15
2017-02-01T08:17:47.511Z,1010.1
2017-02-01T08:18:50.758Z,1010.15
2017-02-01T08:19:55.968Z,1010.09
2017-02-01T08:21:02.142Z,1010.09
2017-02-01T08:22:06.344Z,1010.1
2017-02-01T08:23:11.552Z,1010.17
2017-02-01T08:24:16.749Z,1010.16
2017-02-01T08:25:20.975Z,1010.18
2017-02-01T08:26:26.154Z,1010.12
2017-02-01T08:27:32.329Z,1010.11
2017-02-01T08:28:37.539Z,1010.08
2017-02-01T08:29:43.706Z,1010.1
2017-02-01T08:30:49.935Z,1010.13
2017-02-01T08:31:55.135Z,1010.1
2017-02-01T08:33:01.297Z,1010.1
2017-02-01T08:34:07.490Z,1010.11
2017-02-01T08:35:11.729Z,1010.16
2017-02-01T08:36:17.915Z,1010.06
2017-02-01T08:37:23.090Z,1010.06
2017-02-01T08:38:27.330Z,1009.98
2017-02-01T08:39:32.503Z,1009.99
2017-02-01T08:40:35.747Z,1009.96
2017-02-01T08:41:40.953Z,1009.97
2017-02-01T08:42:47.123Z,1009.98
2017-02-01T08:43:52.432Z,1009.98
2017-02-01T08:44:57.688Z,1010.03
2017-02-01T08:46:03.845Z,1010.05
2017-02-01T08:47:09.034Z,1009.98
2017-02-01T08:48:14.272Z,1010.03
2017-02-01T08:49:20.401Z,1010.02
2017-02-01T08:50:25.628Z,1009.96
2017-02-01T08:51:30.820Z,1009.98
2017-02-01T08:52:34.058Z,1009.96
2017-02-01T08:53:39.328Z,1009.98
2017-02-01T08:54:43.536Z,1009.9
2017-02-01T08:55:48.747Z,1009.97
2017-02-01T08:56:53.925Z,1009.99
2017-02-01T08:58:00.145Z,1009.97
2017-02-01T08:59:06.269Z,1010.01
2017-02-01T09:00:11.470Z,1009.98
2017-02-01T09:01:16.595Z,1010.03
2017-02-01T09:02:20.825Z,1009.95
2017-02-01T09:03:26.992Z,1009.93
2017-02-01T09:04:32.189Z,1009.91
2017-02-01T09:05:38.359Z,1009.93
2017-02-01T09:06:44.536Z,1009.97
2017-02-01T09:07:49.756Z,1009.89
2017-02-01T09:08:54.132Z,1009.93
2017-02-01T09:10:00.297Z,1009.93
2017-02-01T09:11:05.521Z,1009.89
2017-02-01T09:12:10.730Z,1009.89
2017-02-01T09:13:15.896Z,1009.86
2017-02-01T09:14:20.111Z,1009.86
2017-02-01T09:15:25.319Z,1009.88
2017-02-01T09:16:31.485Z,1009.87
2017-02-01T09:17:37.733Z,1009.84
2017-02-01T09:18:43.906Z,1009.89
2017-02-01T09:19:49.104Z,1009.81
2017-02-01T09:20:54.324Z,1009.8
2017-02-01T09:22:00.494Z,1009.85
2017-02-01T09:23:05.698Z,1009.75
2017-02-01T09:24:11.871Z,1009.72
2017-02-01T09:25:18.035Z,1009.69
2017-02-01T09:26:22.240Z,1009.72
2017-02-01T09:27:27.442Z,1009.7
2017-02-01T09:28:33.773Z,1009.74
2017-02-01T09:29:38.990Z,1009.76
2017-02-01T09:30:45.149Z,1009.75
2017-02-01T09:31:51.314Z,1009.8
2017-02-01T09:32:56.516Z,1009.76
2017-02-01T09:34:01.722Z,1009.81
2017-02-01T09:35:05.964Z,1009.71
2017-02-01T09:36:09.304Z,1009.73
2017-02-01T09:37:14.473Z,1009.71
2017-02-01T09:38:20.682Z,1009.76
2017-02-01T09:39:24.853Z,1009.69
2017-02-01T09:40:30.043Z,1009.78
2017-02-01T09:41:36.218Z,1009.77
2017-02-01T09:42:42.387Z,1009.79
2017-02-01T09:43:47.585Z,1009.87
2017-02-01T09:44:53.804Z,1009.78
2017-02-01T09:45:59.911Z,1009.83
2017-02-01T09:47:05.132Z,1009.82
2017-02-01T09:48:10.302Z,1009.84
2017-02-01T09:49:16.465Z,1009.8
2017-02-01T09:50:21.667Z,1009.83
2017-02-01T09:51:26.867Z,1009.78
2017-02-01T09:52:32.048Z,1009.85
2017-02-01T09:53:37.380Z,1009.86
2017-02-01T09:54:43.546Z,1009.82
2017-02-01T09:55:49.767Z,1009.81
2017-02-01T09:56:53.994Z,1009.84
2017-02-01T09:57:58.284Z,1009.87
2017-02-01T09:59:04.446Z,1009.83
2017-02-01T10:00:09.637Z,1009.85
2017-02-01T10:01:14.839Z,1009.83
2017-02-01T10:02:20.088Z,1009.8
2017-02-01T10:03:24.360Z,1009.8
2017-02-01T10:04:28.599Z,1009.84
2017-02-01T10:05:34.762Z,1009.77
2017-02-01T10:06:38.964Z,1009.78
2017-02-01T10:07:45.196Z,1009.76
2017-02-01T10:08:48.440Z,1009.8
2017-02-01T10:09:53.701Z,1009.78
2017-02-01T10:10:59.867Z,1009.72
2017-02-01T10:12:04.203Z,1009.79
2017-02-01T10:13:10.405Z,1009.78
2017-02-01T10:14:16.528Z,1009.76
2017-02-01T10:15:21.732Z,1009.74
2017-02-01T10:16:26.943Z,1009.73
2017-02-01T10:17:32.148Z,1009.78
2017-02-01T10:18:37.348Z,1009.76
2017-02-01T10:19:42.548Z,1009.7
2017-02-01T10:20:48.718Z,1009.68
2017-02-01T10:21:53.965Z,1009.7
2017-02-01T10:23:00.137Z,1009.65
2017-02-01T10:24:05.386Z,1009.71
2017-02-01T10:25:09.616Z,1009.64
2017-02-01T10:26:15.826Z,1009.62
2017-02-01T10:27:21.950Z,1009.62
2017-02-01T10:28:28.113Z,1009.64
2017-02-01T10:29:34.285Z,1009.65
2017-02-01T10:30:39.487Z,1009.63
2017-02-01T10:31:44.690Z,1009.66
2017-02-01T10:32:49.903Z,1009.57
2017-02-01T10:33:56.054Z,1009.58
2017-02-01T10:34:59.295Z,1009.6
2017-02-01T10:36:03.547Z,1009.62
2017-02-01T10:37:09.728Z,1009.6
2017-02-01T10:38:14.947Z,1009.58
2017-02-01T10:39:21.113Z,1009.55
2017-02-01T10:40:25.361Z,1009.59
2017-02-01T10:41:31.547Z,1009.54
2017-02-01T10:42:37.710Z,1009.56
2017-02-01T10:43:42.879Z,1009.59
2017-02-01T10:44:49.051Z,1009.57
2017-02-01T10:45:54.250Z,1009.53
2017-02-01T10:47:00.411Z,1009.47
2017-02-01T10:48:05.704Z,1009.39
2017-02-01T10:49:11.839Z,1009.47
2017-02-01T10:50:18.021Z,1009.39
2017-02-01T10:51:24.231Z,1009.34
2017-02-01T10:52:29.396Z,1009.35
2017-02-01T10:53:33.624Z,1009.33
2017-02-01T10:54:38.811Z,1009.3
2017-02-01T10:55:44.053Z,1009.32
2017-02-01T10:56:49.366Z,1009.27
2017-02-01T10:57:54.528Z,1009.33
2017-02-01T10:58:59.727Z,1009.34
2017-02-01T11:00:05.893Z,1009.29
2017-02-01T11:01:12.067Z,1009.28
2017-02-01T11:02:16.306Z,1009.32
2017-02-01T11:03:21.515Z,1009.23
2017-02-01T11:04:27.692Z,1009.33
2017-02-01T11:05:33.946Z,1009.26
2017-02-01T11:06:40.111Z,1009.26
2017-02-01T11:07:46.314Z,1009.28
2017-02-01T11:08:51.469Z,1009.23
2017-02-01T11:09:57.697Z,1009.14
2017-02-01T11:11:02.900Z,1009.16
2017-02-01T11:12:09.074Z,1009.16
2017-02-01T11:13:14.267Z,1009.15
2017-02-01T11:14:19.443Z,1009.14
2017-02-01T11:15:25.650Z,1009.04
2017-02-01T11:16:31.825Z,1009.1
2017-02-01T11:17:37.985Z,1009.03
2017-02-01T11:18:44.183Z,1008.94
2017-02-01T11:19:50.322Z,1008.99
2017-02-01T11:20:56.506Z,1008.92
2017-02-01T11:22:01.711Z,1008.89
2017-02-01T11:23:06.947Z,1008.87
2017-02-01T11:24:12.156Z,1008.86
2017-02-01T11:25:17.326Z,1008.78
2017-02-01T11:26:22.537Z,1008.78
2017-02-01T11:27:28.703Z,1008.77
2017-02-01T11:28:32.917Z,1008.72
2017-02-01T11:29:39.102Z,1008.71
2017-02-01T11:30:44.282Z,1008.75
2017-02-01T11:31:50.480Z,1008.71
2017-02-01T11:32:56.620Z,1008.71
2017-02-01T11:34:00.870Z,1008.71
2017-02-01T11:35:06.112Z,1008.76
2017-02-01T11:36:11.417Z,1008.74
2017-02-01T11:37:16.589Z,1008.74
2017-02-01T11:38:20.792Z,1008.73
2017-02-01T11:39:25.998Z,1008.73
2017-02-01T11:40:32.172Z,1008.68
2017-02-01T11:41:37.418Z,1008.7
2017-02-01T11:42:41.585Z,1008.67
2017-02-01T11:43:45.788Z,1008.59
2017-02-01T11:44:51.974Z,1008.53
2017-02-01T11:45:57.168Z,1008.49
2017-02-01T11:47:01.412Z,1008.49
2017-02-01T11:48:07.584Z,1008.45
2017-02-01T11:49:11.824Z,1008.46
2017-02-01T11:50:17.033Z,1008.43
2017-02-01T11:51:23.201Z,1008.41
2017-02-01T11:52:28.365Z,1008.4
2017-02-01T11:53:34.539Z,1008.43
2017-02-01T11:54:39.747Z,1008.41
2017-02-01T11:55:44.930Z,1008.43
2017-02-01T11:56:51.104Z,1008.4
2017-02-01T11:59:01.500Z,1008.36
2017-02-01T12:00:06.708Z,1008.33
2017-02-01T12:01:11.885Z,1008.23
2017-02-01T12:02:18.049Z,1008.27
2017-02-01T12:03:24.239Z,1008.24
2017-02-01T12:04:29.425Z,1008.29
2017-02-01T12:05:35.593Z,1008.27
2017-02-01T12:06:38.952Z,1008.24
2017-02-01T12:07:44.152Z,1008.24
2017-02-01T12:08:49.450Z,1008.27
2017-02-01T12:09:55.740Z,1008.25
2017-02-01T12:11:00.927Z,1008.21
2017-02-01T12:12:06.223Z,1008.18
2017-02-01T12:13:11.388Z,1008.2
2017-02-01T12:14:15.590Z,1008.15
2017-02-01T12:15:21.764Z,1008.13
2017-02-01T12:16:27.988Z,1008.09
2017-02-01T12:17:33.282Z,1008.06
2017-02-01T12:18:39.447Z,1008.03
2017-02-01T12:19:45.616Z,1008.02
2017-02-01T12:20:50.814Z,1008.02
2017-02-01T12:21:55.017Z,1008.05
2017-02-01T12:23:00.213Z,1008.03
2017-02-01T12:24:06.393Z,1008.06
2017-02-01T12:25:12.578Z,1008.03
2017-02-01T12:26:17.828Z,1008.05
2017-02-01T12:27:23.949Z,1008.04
2017-02-01T12:28:29.161Z,1008.03
2017-02-01T12:29:35.330Z,1007.99
2017-02-01T12:30:39.565Z,1007.99
2017-02-01T12:31:45.766Z,1008.01
2017-02-01T12:33:55.147Z,1007.98
2017-02-01T12:35:00.433Z,1007.92
2017-02-01T12:36:06.612Z,1007.9
2017-02-01T12:37:11.834Z,1007.81
2017-02-01T12:38:17.029Z,1007.82
2017-02-01T12:39:23.202Z,1007.8
2017-02-01T12:40:28.415Z,1007.8
2017-02-01T12:41:33.645Z,1007.78
2017-02-01T12:42:39.806Z,1007.73
2017-02-01T12:43:45.077Z,1007.73
2017-02-01T12:44:51.236Z,1007.75
2017-02-01T12:45:57.421Z,1007.74
2017-02-01T12:47:02.624Z,1007.66
2017-02-01T12:48:07.883Z,1007.67
2017-02-01T12:49:12.073Z,1007.67
2017-02-01T12:50:18.317Z,1007.65
2017-02-01T12:51:23.522Z,1007.65
2017-02-01T12:52:28.767Z,1007.63
2017-02-01T12:53:34.909Z,1007.6
2017-02-01T12:54:41.095Z,1007.58
2017-02-01T12:55:47.286Z,1007.53
2017-02-01T12:56:53.436Z,1007.52
2017-02-01T12:57:58.633Z,1007.55
2017-02-01T12:59:03.833Z,1007.51
2017-02-01T13:00:10.019Z,1007.53
2017-02-01T13:01:16.173Z,1007.49
2017-02-01T13:02:21.404Z,1007.54
2017-02-01T13:03:27.570Z,1007.5
2017-02-01T13:04:32.799Z,1007.52
2017-02-01T13:05:38.009Z,1007.48
2017-02-01T13:06:43.212Z,1007.46
2017-02-01T13:07:47.441Z,1007.47
2017-02-01T13:08:53.693Z,1007.39
2017-02-01T13:09:57.935Z,1007.43
2017-02-01T13:11:03.143Z,1007.46
2017-02-01T13:12:09.300Z,1007.44
2017-02-01T13:13:13.535Z,1007.4
2017-02-01T13:14:18.755Z,1007.45
2017-02-01T13:15:23.990Z,1007.39
2017-02-01T13:16:28.541Z,1007.39
2017-02-01T13:17:32.774Z,1007.34